Date,TemperatureHighF,TemperatureAvgF,TemperatureLowF,DewpointHighF,DewpointAvgF,DewpointLowF,HumidityHigh,HumidityAvg,HumidityLow,PressureMaxIn,PressureMinIn,WindSpeedMaxMPH,WindSpeedAvgMPH,GustSpeedMaxMPH,PrecipitationSumIn
2014-1-1,25,20,10,-100,-100,-100,0,0,100,0.00,40.00,0,-999,0,0.22
2014-2-8,26,22,15,-100,-100,-100,0,0,100,0.00,40.00,0,-999,0,0.12
2014-2-9,33,29,26,-100,-100,-100,0,0,100,0.00,40.00,0,-999,0,0.52
2014-2-10,31,25,19,-100,-100,-100,0,0,100,0.00,40.00,0,-999,0,0.05
2014-2-11,27,23,18,-100,-100,-100,0,0,100,0.00,40.00,0,-999,0,0.01
2014-2-12,32,28,20,-100,-100,-100,0,0,100,0.00,40.00,0,-999,0,0.01
2014-2-13,34,32,23,-100,-100,-100,0,0,100,0.00,40.00,0,-999,0,0.14
2014-2-14,33,22,11,-100,-100,-100,0,0,100,0.00,40.00,0,-999,0,0.35
2014-3-12,41,20,2,-100,-100,-100,0,0,100,0.00,40.00,0,-999,0,0.02
2014-3-13,42,23,2,-100,-100,-100,0,0,100,0.00,40.00,0,-999,0,0.00
2014-3-14,44,26,7,-100,-100,-100,0,0,100,0.00,40.00,0,-999,0,0.05
2014-3-15,38,29,16,-100,-100,-100,0,0,100,0.00,40.00,0,-999,0,0.07
2014-3-16,49,31,11,-100,-100,-100,0,0,100,0.00,40.00,0,-999,0,0.02
2014-3-17,46,36,26,-100,-100,-100,0,0,100,0.00,40.00,0,-999,0,0.08
2014-3-18,29,20,10,-100,-100,-100,0,0,100,0.00,40.00,0,-999,0,0.15
2014-3-19,37,30,5,-100,-100,-100,0,0,100,0.00,40.00,0,-999,0,0.00
2014-3-20,41,35,27,-100,-100,-100,0,0,100,0.00,40.00,0,-999,0,0.00
2014-3-21,34,22,7,-100,-100,-100,0,0,100,0.00,40.00,0,-999,0,0.00
2014-3-22,35,23,12,-100,-100,-100,0,0,100,0.00,40.00,0,-999,0,0.04
2014-3-23,39,24,1,-100,-100,-100,0,0,100,0.00,40.00,0,-999,0,0.02
2014-3-24,41,25,6,-100,-100,-100,0,0,100,0.00,40.00,0,-999,0,0.01
2014-3-25,53,37,11,-100,-100,-100,0,0,100,0.00,40.00,0,-999,0,0.03
2014-7-24,76,60,41,-100,0,200,0,0,100,0.00,40.00,0,0,0,0.10
2014-7-25,74,54,30,-100,0,200,0,0,100,0.00,40.00,0,0,0,0.02
2014-7-26,77,60,31,-100,0,200,0,0,100,0.00,40.00,0,0,0,0.00
2014-7-27,84,59,32,-100,0,200,0,0,100,0.00,40.00,0,0,0,0.00
2014-7-28,81,61,37,-100,0,200,0,0,100,0.00,40.00,0,0,0,0.00
2014-7-29,65,60,52,-100,0,200,0,0,100,0.00,40.00,0,0,0,0.00
2014-7-30,74,59,45,-100,0,200,0,0,100,0.00,40.00,0,0,0,0.00
2014-7-31,76,58,39,-100,0,200,0,0,100,0.00,40.00,0,0,0,0.00
2014-8-1,77,58,44,-100,0,200,0,0,100,0.00,40.00,0,0,0,0.01
2014-8-2,79,59,39,-100,0,200,0,0,100,0.00,40.00,0,0,0,0.01
2014-8-3,83,66,42,-100,0,200,0,0,100,0.00,40.00,0,0,0,0.00
2014-8-4,63,55,48,-100,0,200,0,0,100,0.00,40.00,0,0,0,0.10
2014-8-5,62,56,52,-100,0,200,0,0,100,0.00,40.00,0,0,0,0.71
2014-8-6,62,54,53,-100,0,200,0,0,100,0.00,40.00,0,0,0,0.72
2014-10-25,67,40,22,-100,0,200,0,0,100,0.00,40.00,0,0,0,0.02
2014-10-26,43,37,30,-100,0,200,0,0,100,0.00,40.00,0,0,0,0.31
2014-10-27,35,30,27,-100,0,200,0,0,100,0.00,40.00,0,0,0,0.08
2014-10-28,43,28,16,-100,0,200,0,0,100,0.00,40.00,0,0,0,0.01
2014-10-29,43,30,19,-100,0,200,0,0,100,0.00,40.00,0,0,0,0.01
2014-10-30,55,35,25,-100,0,200,0,0,100,0.00,40.00,0,0,0,0.01
2014-10-31,61,38,24,-100,0,200,0,0,100,0.00,40.00,0,0,0,0.01
2014-11-7,49,37,27,-100,0,200,0,0,100,0.00,40.00,0,0,0,0.00
2014-11-8,49,32,22,-100,0,200,0,0,100,0.00,40.00,0,0,0,0.00
2014-11-9,47,34,25,-100,0,200,0,0,100,0.00,40.00,0,0,0,0.00
2014-11-10,36,27,18,-100,0,200,0,0,100,0.00,40.00,0,0,0,0.21
2014-11-11,17,8,-2,-100,0,200,0,0,100,0.00,40.00,0,0,0,0.19
2014-11-12,13,-1,-11,-100,0,200,0,0,100,0.00,40.00,0,0,0,0.03
2014-11-13,14,2,-13,-100,0,200,0,0,100,0.00,40.00,0,0,0,0.05
2014-11-14,25,20,12,-100,0,200,0,0,100,0.00,40.00,0,0,0,0.83
2014-11-15,18,7,-10,-100,0,200,0,0,100,0.00,40.00,0,0,0,0.29
2014-11-16,17,-1,-17,-100,0,200,0,0,100,0.00,40.00,0,0,0,0.01
2014-11-17,21,-4,-24,-100,0,200,0,0,100,0.00,40.00,0,0,0,0.04
2014-11-18,27,6,-14,-100,0,200,0,0,100,0.00,40.00,0,0,0,0.01
2014-11-19,36,19,7,-100,0,200,0,0,100,0.00,40.00,0,0,0,0.02
2014-11-20,36,23,10,-100,0,200,0,0,100,0.00,40.00,0,0,0,0.00